Barbarossa — IBJD — position and weather

sailwx.info

Track history (hours):
 
Tides and Currents Weather Stations Pressure Air Temp Water Temp Dewpoint Dewpoint Depression Visibility Wind Speed Wind Dir Waves Ship Positions

Barbarossa

Last reported at 2017-Oct-22 19:01 UTC. Time now 2017-Oct-22 19:14 UTC.
Position N 44°53' E 013°18'.

Length 294 m; draft 8.1 m.

Type: Passenger vessel. MMSI: 247282900.

Date/timePositionNaut miles runAvg speedWind from/ knotsBaromVisibWave heightAir tempDewpointWater temp
2017-Oct-22 19:01N 44°53' E 013°18'918.4
2017-Oct-22 18:31N 45°00' E 013°10'918.2
2017-Oct-22 18:00N 45°07' E 013°01'918.3
2017-Oct-22 17:30N 45°13' E 012°51'917.8
2017-Oct-22 17:01N 45°18' E 012°41'917.1
2017-Oct-22 16:30N 45°23' E 012°31'612.0
2017-Oct-22 16:00N 45°26' E 012°24'2 4.9
2017-Oct-22 15:30N 45°26' E 012°20'1 2.4
2017-Oct-22 15:00N 45°26' E 012°19'0 0.0
2017-Oct-22 14:30N 45°26' E 012°19'0 0.0
2017-Oct-22 14:00N 45°26' E 012°19'0 0.0
2017-Oct-22 13:30N 45°26' E 012°19'0 0.0
2017-Oct-22 13:00N 45°26' E 012°19'0 0.0
2017-Oct-22 12:30N 45°26' E 012°19'0 0.0
2017-Oct-22 12:00N 45°26' E 012°19'0 0.0
2017-Oct-22 11:30N 45°26' E 012°19'0 0.0
2017-Oct-22 11:00N 45°26' E 012°19'0 0.0
2017-Oct-22 10:30N 45°26' E 012°19'0 0.0
2017-Oct-22 10:00N 45°26' E 012°19'0 0.0
2017-Oct-22 09:30N 45°26' E 012°19'0 0.0
2017-Oct-22 09:00N 45°26' E 012°19'0 0.0
2017-Oct-22 08:30N 45°26' E 012°19'0 0.0
2017-Oct-22 07:54N 45°26' E 012°19'0 0.0
2017-Oct-22 07:30N 45°26' E 012°19'0 0.4
2017-Oct-22 07:00N 45°26' E 012°19'2 3.9
2017-Oct-22 06:30N 45°26' E 012°21'3 5.3
2017-Oct-22 06:00N 45°26' E 012°25'5 9.1
2017-Oct-22 05:30N 45°23' E 012°31'611.7
2017-Oct-22 05:00N 45°20' E 012°38'714.6
2017-Oct-22 04:31N 45°17' E 012°47'816.4
2017-Oct-22 04:00N 45°10' E 012°54'816.9
2017-Oct-22 03:30N 45°04' E 013°01'917.5
2017-Oct-22 03:00N 44°59' E 013°12'917.4
2017-Oct-22 02:30N 44°54' E 013°22'917.6
2017-Oct-22 02:00N 44°47' E 013°29'917.5
2017-Oct-22 01:31N 44°40' E 013°36'917.3
2017-Oct-22 01:01N 44°33' E 013°43'918.0
2017-Oct-22 00:31N 44°25' E 013°50'918.8
2017-Oct-22 00:00N 44°18' E 013°57'918.6
2017-Oct-21 23:30N 44°10' E 014°05'918.5
2017-Oct-21 23:01N 44°03' E 014°13'918.5
2017-Oct-21 22:30N 43°56' E 014°21'1018.9
2017-Oct-21 22:00N 43°48' E 014°30'1018.9
2017-Oct-21 21:29N 43°41' E 014°39'56711.0
2017-Oct-19 17:52N 37°03' E 023°29'615.3
2017-Oct-19 17:29N 37°08' E 023°34'915.4
2017-Oct-19 16:55N 37°15' E 023°41'2215.1
2017-Oct-19 15:28N 37°37' E 023°43'715.6
2017-Oct-19 15:00N 37°43' E 023°40'815.4
2017-Oct-19 14:30N 37°50' E 023°36'611.9
2017-Oct-19 14:01N 37°56' E 023°37'0 0.7
2017-Oct-19 13:28N 37°56' E 023°37'0 0.0
2017-Oct-19 12:58N 37°56' E 023°37'0 0.0
2017-Oct-19 12:28N 37°56' E 023°37'0 0.0
2017-Oct-19 11:58N 37°56' E 023°37'0 0.0
2017-Oct-19 11:28N 37°56' E 023°37'0 0.0
2017-Oct-19 10:58N 37°56' E 023°37'0 0.0
2017-Oct-19 10:28N 37°56' E 023°37'0 0.0
2017-Oct-19 09:58N 37°56' E 023°37'0 0.0
2017-Oct-19 09:28N 37°56' E 023°37'0 0.0
2017-Oct-19 08:58N 37°56' E 023°37'0 0.0
2017-Oct-19 08:28N 37°56' E 023°37'0 0.0
2017-Oct-19 07:58N 37°56' E 023°37'0 0.0
2017-Oct-19 07:28N 37°56' E 023°37'0 0.0
2017-Oct-19 06:58N 37°56' E 023°37'0 0.0
2017-Oct-19 06:28N 37°56' E 023°37'0 0.0
2017-Oct-19 05:58N 37°56' E 023°37'0 0.0
2017-Oct-19 05:28N 37°56' E 023°37'0 0.0
2017-Oct-19 04:58N 37°56' E 023°37'0 0.0
2017-Oct-19 04:28N 37°56' E 023°37'0 0.0
2017-Oct-19 04:00N 37°56' E 023°37'1 2.3
2017-Oct-19 03:30N 37°55' E 023°37'1 2.5
2017-Oct-19 03:00N 37°54' E 023°38'4 7.1
2017-Oct-19 02:30N 37°51' E 023°39'715.0
2017-Oct-19 02:00N 37°44' E 023°43'815.3
2017-Oct-19 01:30N 37°37' E 023°47'132 4.5
2017-Oct-17 20:00N 37°18' E 021°02'15710.2
2017-Oct-17 04:38N 39°47' E 019°59'214.5
2017-Oct-17 04:30N 39°48' E 019°59'816.1
2017-Oct-17 04:00N 39°53' E 019°50'816.1
2017-Oct-17 03:30N 39°58' E 019°42'816.2
2017-Oct-17 03:00N 40°03' E 019°33'816.4
2017-Oct-17 02:30N 40°07' E 019°24'1016.2
2017-Oct-17 01:54N 40°13' E 019°14'616.3
2017-Oct-17 01:30N 40°17' E 019°07'1216.3
2017-Oct-17 00:45N 40°24' E 018°54'416.3
2017-Oct-17 00:31N 40°26' E 018°50'816.4
2017-Oct-17 00:00N 40°31' E 018°41'816.5
2017-Oct-16 23:30N 40°36' E 018°32'816.7
2017-Oct-16 23:00N 40°41' E 018°23'1616.8
2017-Oct-16 22:02N 40°48' E 018°04'116.2
2017-Oct-16 22:00N 40°49' E 018°03'816.3
2017-Oct-16 21:30N 40°51' E 017°53'49 4.7
2017-Oct-16 11:01N 41°08' E 016°52'4018.3
2017-Oct-16 08:50N 41°45' E 016°30'7920.9
2017-Oct-16 05:05N 42°46' E 015°24'321.1
2017-Oct-16 04:57N 42°48' E 015°22'3821.1
2017-Oct-16 03:10N 43°18' E 014°50'320.9
2017-Oct-16 03:00N 43°21' E 014°47'1121.1
2017-Oct-16 02:30N 43°29' E 014°38'1120.9
2017-Oct-16 01:58N 43°39' E 014°30'1020.8
2017-Oct-16 01:30N 43°46' E 014°22'1020.8
2017-Oct-16 01:01N 43°55' E 014°14'1121.0
2017-Oct-16 00:30N 44°03' E 014°05'1021.1
2017-Oct-16 00:00N 44°12' E 013°57'1121.0
2017-Oct-15 23:30N 44°20' E 013°48'1020.9
2017-Oct-15 23:00N 44°29' E 013°40'1120.9
2017-Oct-15 22:30N 44°38' E 013°31'1021.0
2017-Oct-15 22:01N 44°47' E 013°24'1121.0
2017-Oct-15 21:30N 44°55' E 013°15'1020.8
2017-Oct-15 21:00N 45°04' E 013°07'1020.5
2017-Oct-15 20:30N 45°13' E 013°01'1019.4
2017-Oct-15 20:00N 45°23' E 012°60'1020.3
2017-Oct-15 19:30N 45°29' E 013°11'917.7
2017-Oct-15 19:00N 45°35' E 013°21'919.0
2017-Oct-15 18:30N 45°38' E 013°34'815.3
2017-Oct-15 18:00N 45°39' E 013°44'1 2.0
2017-Oct-15 17:30N 45°39' E 013°46'0 0.0
2017-Oct-15 16:54N 45°39' E 013°46'0 0.0
2017-Oct-15 16:27N 45°39' E 013°46'0 0.0
2017-Oct-15 16:00N 45°39' E 013°46'0 0.0
2017-Oct-15 15:26N 45°39' E 013°46'0 0.0
2017-Oct-15 14:54N 45°39' E 013°46'0 0.0
2017-Oct-15 14:00N 45°39' E 013°46'0 0.0
2017-Oct-15 13:27N 45°39' E 013°46'0 0.0
2017-Oct-15 12:57N 45°39' E 013°46'0 0.0
2017-Oct-15 12:30N 45°39' E 013°46'0 0.0
2017-Oct-15 12:00N 45°39' E 013°46'0 0.0
2017-Oct-15 11:27N 45°39' E 013°46'0 0.0
2017-Oct-15 11:00N 45°39' E 013°46'0 0.0
2017-Oct-15 10:23N 45°39' E 013°46'0 0.0
2017-Oct-15 09:53N 45°39' E 013°46'0 0.0
2017-Oct-15 09:29N 45°39' E 013°46'0 0.0
2017-Oct-15 08:59N 45°39' E 013°46'0 0.0
2017-Oct-15 08:29N 45°39' E 013°46'0 0.0
2017-Oct-15 07:59N 45°39' E 013°46'0 0.0
2017-Oct-15 07:29N 45°39' E 013°46'0 0.0
2017-Oct-15 06:58N 45°39' E 013°46'0 0.0
2017-Oct-15 06:21N 45°39' E 013°46'0 0.0
2017-Oct-15 06:00N 45°39' E 013°46'0 0.0
2017-Oct-15 05:30N 45°39' E 013°46'0 0.0
2017-Oct-15 05:00N 45°39' E 013°46'0 0.8
2017-Oct-15 04:30N 45°39' E 013°45'3 6.9
2017-Oct-15 04:00N 45°39' E 013°40'815.8
2017-Oct-15 03:30N 45°34' E 013°31'1020.4
2017-Oct-15 03:00N 45°29' E 013°19'1019.4
2017-Oct-15 02:30N 45°21' E 013°11'1020.7
2017-Oct-15 02:00N 45°11' E 013°14'1020.7
2017-Oct-15 01:30N 45°02' E 013°19'1020.4
2017-Oct-15 01:00N 44°54' E 013°28'1020.3
2017-Oct-15 00:30N 44°45' E 013°35'1020.6
2017-Oct-15 00:00N 44°35' E 013°41'1020.7
2017-Oct-14 23:30N 44°27' E 013°49'1020.6
2017-Oct-14 23:00N 44°18' E 013°57'1020.7
2017-Oct-14 22:30N 44°10' E 014°06'1020.5
2017-Oct-14 22:00N 44°02' E 014°14'1020.6
2017-Oct-14 21:30N 43°54' E 014°23'1020.0
2017-Oct-14 21:00N 43°46' E 014°33'1019.2
2017-Oct-14 20:30N 43°39' E 014°42'1720.4
2017-Oct-14 19:40N 43°26' E 014°57'520.3
2017-Oct-14 19:26N 43°23' E 015°01'920.4
2017-Oct-14 19:00N 43°16' E 015°09'2120.5
2017-Oct-14 17:58N 43°01' E 015°29'920.5
2017-Oct-14 17:30N 42°57' E 015°41'1020.5
2017-Oct-14 17:00N 42°53' E 015°54'2120.2
2017-Oct-14 15:58N 42°44' E 016°20'87 6.7
2017-Oct-14 02:58N 42°14' E 018°11'714.8
2017-Oct-14 02:29N 42°07' E 018°13'9715.4
2017-Oct-13 20:12N 40°34' E 018°46'313.4
2017-Oct-13 20:00N 40°31' E 018°47'813.8
2017-Oct-13 19:24N 40°23' E 018°50'1013.5
2017-Oct-13 18:41N 40°14' E 018°53'1113.0
2017-Oct-13 17:51N 40°03' E 018°56'812.8
2017-Oct-13 17:13N 39°55' E 018°59'312.8
2017-Oct-13 17:00N 39°53' E 018°60'  
Track history (hours):
 
Tides and Currents Weather Stations Pressure Air Temp Water Temp Dewpoint Dewpoint Depression Visibility Wind Speed Wind Dir Waves Ship Positions

Barbarossa

Last reported at 2017-Oct-22 19:01 UTC. Time now 2017-Oct-22 19:14 UTC.
Position N 44°53' E 013°18'.

Length 294 m; draft 8.1 m.

Type: Passenger vessel. MMSI: 247282900.

Date/timePositionNaut miles runAvg speedWind from/ knotsBaromVisibWave heightAir tempDewpointWater temp
2017-Oct-22 19:01N 44°53' E 013°18'918.4
2017-Oct-22 18:31N 45°00' E 013°10'918.2
2017-Oct-22 18:00N 45°07' E 013°01'918.3
2017-Oct-22 17:30N 45°13' E 012°51'917.8
2017-Oct-22 17:01N 45°18' E 012°41'917.1
2017-Oct-22 16:30N 45°23' E 012°31'612.0
2017-Oct-22 16:00N 45°26' E 012°24'2 4.9
2017-Oct-22 15:30N 45°26' E 012°20'1 2.4
2017-Oct-22 15:00N 45°26' E 012°19'0 0.0
2017-Oct-22 14:30N 45°26' E 012°19'0 0.0
2017-Oct-22 14:00N 45°26' E 012°19'0 0.0
2017-Oct-22 13:30N 45°26' E 012°19'0 0.0
2017-Oct-22 13:00N 45°26' E 012°19'0 0.0
2017-Oct-22 12:30N 45°26' E 012°19'0 0.0
2017-Oct-22 12:00N 45°26' E 012°19'0 0.0
2017-Oct-22 11:30N 45°26' E 012°19'0 0.0
2017-Oct-22 11:00N 45°26' E 012°19'0 0.0
2017-Oct-22 10:30N 45°26' E 012°19'0 0.0
2017-Oct-22 10:00N 45°26' E 012°19'0 0.0
2017-Oct-22 09:30N 45°26' E 012°19'0 0.0
2017-Oct-22 09:00N 45°26' E 012°19'0 0.0
2017-Oct-22 08:30N 45°26' E 012°19'0 0.0
2017-Oct-22 07:54N 45°26' E 012°19'0 0.0
2017-Oct-22 07:30N 45°26' E 012°19'0 0.4
2017-Oct-22 07:00N 45°26' E 012°19'2 3.9
2017-Oct-22 06:30N 45°26' E 012°21'3 5.3
2017-Oct-22 06:00N 45°26' E 012°25'5 9.1
2017-Oct-22 05:30N 45°23' E 012°31'611.7
2017-Oct-22 05:00N 45°20' E 012°38'714.6
2017-Oct-22 04:31N 45°17' E 012°47'816.4
2017-Oct-22 04:00N 45°10' E 012°54'816.9
2017-Oct-22 03:30N 45°04' E 013°01'917.5
2017-Oct-22 03:00N 44°59' E 013°12'917.4
2017-Oct-22 02:30N 44°54' E 013°22'917.6
2017-Oct-22 02:00N 44°47' E 013°29'917.5
2017-Oct-22 01:31N 44°40' E 013°36'917.3
2017-Oct-22 01:01N 44°33' E 013°43'918.0
2017-Oct-22 00:31N 44°25' E 013°50'918.8
2017-Oct-22 00:00N 44°18' E 013°57'918.6
2017-Oct-21 23:30N 44°10' E 014°05'918.5
2017-Oct-21 23:01N 44°03' E 014°13'918.5
2017-Oct-21 22:30N 43°56' E 014°21'1018.9
2017-Oct-21 22:00N 43°48' E 014°30'1018.9
2017-Oct-21 21:29N 43°41' E 014°39'56711.0
2017-Oct-19 17:52N 37°03' E 023°29'615.3
2017-Oct-19 17:29N 37°08' E 023°34'915.4
2017-Oct-19 16:55N 37°15' E 023°41'2215.1
2017-Oct-19 15:28N 37°37' E 023°43'715.6
2017-Oct-19 15:00N 37°43' E 023°40'815.4
2017-Oct-19 14:30N 37°50' E 023°36'611.9
2017-Oct-19 14:01N 37°56' E 023°37'0 0.7
2017-Oct-19 13:28N 37°56' E 023°37'0 0.0
2017-Oct-19 12:58N 37°56' E 023°37'0 0.0
2017-Oct-19 12:28N 37°56' E 023°37'0 0.0
2017-Oct-19 11:58N 37°56' E 023°37'0 0.0
2017-Oct-19 11:28N 37°56' E 023°37'0 0.0
2017-Oct-19 10:58N 37°56' E 023°37'0 0.0
2017-Oct-19 10:28N 37°56' E 023°37'0 0.0
2017-Oct-19 09:58N 37°56' E 023°37'0 0.0
2017-Oct-19 09:28N 37°56' E 023°37'0 0.0
2017-Oct-19 08:58N 37°56' E 023°37'0 0.0
2017-Oct-19 08:28N 37°56' E 023°37'0 0.0
2017-Oct-19 07:58N 37°56' E 023°37'0 0.0
2017-Oct-19 07:28N 37°56' E 023°37'0 0.0
2017-Oct-19 06:58N 37°56' E 023°37'0 0.0
2017-Oct-19 06:28N 37°56' E 023°37'0 0.0
2017-Oct-19 05:58N 37°56' E 023°37'0 0.0
2017-Oct-19 05:28N 37°56' E 023°37'0 0.0
2017-Oct-19 04:58N 37°56' E 023°37'0 0.0
2017-Oct-19 04:28N 37°56' E 023°37'0 0.0
2017-Oct-19 04:00N 37°56' E 023°37'1 2.3
2017-Oct-19 03:30N 37°55' E 023°37'1 2.5
2017-Oct-19 03:00N 37°54' E 023°38'4 7.1
2017-Oct-19 02:30N 37°51' E 023°39'715.0
2017-Oct-19 02:00N 37°44' E 023°43'815.3
2017-Oct-19 01:30N 37°37' E 023°47'132 4.5
2017-Oct-17 20:00N 37°18' E 021°02'15710.2
2017-Oct-17 04:38N 39°47' E 019°59'214.5
2017-Oct-17 04:30N 39°48' E 019°59'816.1
2017-Oct-17 04:00N 39°53' E 019°50'816.1
2017-Oct-17 03:30N 39°58' E 019°42'816.2
2017-Oct-17 03:00N 40°03' E 019°33'816.4
2017-Oct-17 02:30N 40°07' E 019°24'1016.2
2017-Oct-17 01:54N 40°13' E 019°14'616.3
2017-Oct-17 01:30N 40°17' E 019°07'1216.3
2017-Oct-17 00:45N 40°24' E 018°54'416.3
2017-Oct-17 00:31N 40°26' E 018°50'816.4
2017-Oct-17 00:00N 40°31' E 018°41'816.5
2017-Oct-16 23:30N 40°36' E 018°32'816.7
2017-Oct-16 23:00N 40°41' E 018°23'1616.8
2017-Oct-16 22:02N 40°48' E 018°04'116.2
2017-Oct-16 22:00N 40°49' E 018°03'816.3
2017-Oct-16 21:30N 40°51' E 017°53'49 4.7
2017-Oct-16 11:01N 41°08' E 016°52'4018.3
2017-Oct-16 08:50N 41°45' E 016°30'7920.9
2017-Oct-16 05:05N 42°46' E 015°24'321.1
2017-Oct-16 04:57N 42°48' E 015°22'3821.1
2017-Oct-16 03:10N 43°18' E 014°50'320.9
2017-Oct-16 03:00N 43°21' E 014°47'1121.1
2017-Oct-16 02:30N 43°29' E 014°38'1120.9
2017-Oct-16 01:58N 43°39' E 014°30'1020.8
2017-Oct-16 01:30N 43°46' E 014°22'1020.8
2017-Oct-16 01:01N 43°55' E 014°14'1121.0
2017-Oct-16 00:30N 44°03' E 014°05'1021.1
2017-Oct-16 00:00N 44°12' E 013°57'1121.0
2017-Oct-15 23:30N 44°20' E 013°48'1020.9
2017-Oct-15 23:00N 44°29' E 013°40'1120.9
2017-Oct-15 22:30N 44°38' E 013°31'1021.0
2017-Oct-15 22:01N 44°47' E 013°24'1121.0
2017-Oct-15 21:30N 44°55' E 013°15'1020.8
2017-Oct-15 21:00N 45°04' E 013°07'1020.5
2017-Oct-15 20:30N 45°13' E 013°01'1019.4
2017-Oct-15 20:00N 45°23' E 012°60'1020.3
2017-Oct-15 19:30N 45°29' E 013°11'917.7
2017-Oct-15 19:00N 45°35' E 013°21'919.0
2017-Oct-15 18:30N 45°38' E 013°34'815.3
2017-Oct-15 18:00N 45°39' E 013°44'1 2.0
2017-Oct-15 17:30N 45°39' E 013°46'0 0.0
2017-Oct-15 16:54N 45°39' E 013°46'0 0.0
2017-Oct-15 16:27N 45°39' E 013°46'0 0.0
2017-Oct-15 16:00N 45°39' E 013°46'0 0.0
2017-Oct-15 15:26N 45°39' E 013°46'0 0.0
2017-Oct-15 14:54N 45°39' E 013°46'0 0.0
2017-Oct-15 14:00N 45°39' E 013°46'0 0.0
2017-Oct-15 13:27N 45°39' E 013°46'0 0.0
2017-Oct-15 12:57N 45°39' E 013°46'0 0.0
2017-Oct-15 12:30N 45°39' E 013°46'0 0.0
2017-Oct-15 12:00N 45°39' E 013°46'0 0.0
2017-Oct-15 11:27N 45°39' E 013°46'0 0.0
2017-Oct-15 11:00N 45°39' E 013°46'0 0.0
2017-Oct-15 10:23N 45°39' E 013°46'0 0.0
2017-Oct-15 09:53N 45°39' E 013°46'0 0.0
2017-Oct-15 09:29N 45°39' E 013°46'0 0.0
2017-Oct-15 08:59N 45°39' E 013°46'0 0.0
2017-Oct-15 08:29N 45°39' E 013°46'0 0.0
2017-Oct-15 07:59N 45°39' E 013°46'0 0.0
2017-Oct-15 07:29N 45°39' E 013°46'0 0.0
2017-Oct-15 06:58N 45°39' E 013°46'0 0.0
2017-Oct-15 06:21N 45°39' E 013°46'0 0.0
2017-Oct-15 06:00N 45°39' E 013°46'0 0.0
2017-Oct-15 05:30N 45°39' E 013°46'0 0.0
2017-Oct-15 05:00N 45°39' E 013°46'0 0.8
2017-Oct-15 04:30N 45°39' E 013°45'3 6.9
2017-Oct-15 04:00N 45°39' E 013°40'815.8
2017-Oct-15 03:30N 45°34' E 013°31'1020.4
2017-Oct-15 03:00N 45°29' E 013°19'1019.4
2017-Oct-15 02:30N 45°21' E 013°11'1020.7
2017-Oct-15 02:00N 45°11' E 013°14'1020.7
2017-Oct-15 01:30N 45°02' E 013°19'1020.4
2017-Oct-15 01:00N 44°54' E 013°28'1020.3
2017-Oct-15 00:30N 44°45' E 013°35'1020.6
2017-Oct-15 00:00N 44°35' E 013°41'1020.7
2017-Oct-14 23:30N 44°27' E 013°49'1020.6
2017-Oct-14 23:00N 44°18' E 013°57'1020.7
2017-Oct-14 22:30N 44°10' E 014°06'1020.5
2017-Oct-14 22:00N 44°02' E 014°14'1020.6
2017-Oct-14 21:30N 43°54' E 014°23'1020.0
2017-Oct-14 21:00N 43°46' E 014°33'1019.2
2017-Oct-14 20:30N 43°39' E 014°42'1720.4
2017-Oct-14 19:40N 43°26' E 014°57'520.3
2017-Oct-14 19:26N 43°23' E 015°01'920.4
2017-Oct-14 19:00N 43°16' E 015°09'2120.5
2017-Oct-14 17:58N 43°01' E 015°29'920.5
2017-Oct-14 17:30N 42°57' E 015°41'1020.5
2017-Oct-14 17:00N 42°53' E 015°54'2120.2
2017-Oct-14 15:58N 42°44' E 016°20'87 6.7
2017-Oct-14 02:58N 42°14' E 018°11'714.8
2017-Oct-14 02:29N 42°07' E 018°13'9715.4
2017-Oct-13 20:12N 40°34' E 018°46'313.4
2017-Oct-13 20:00N 40°31' E 018°47'813.8
2017-Oct-13 19:24N 40°23' E 018°50'1013.5
2017-Oct-13 18:41N 40°14' E 018°53'1113.0
2017-Oct-13 17:51N 40°03' E 018°56'812.8
2017-Oct-13 17:13N 39°55' E 018°59'312.8
2017-Oct-13 17:00N 39°53' E 018°60'  

Dump ship's entire track history